Time;durP1;ratioP1;P1;durP2;ratioP2;P2;SDS_P1;SDS_P2;PMS_P1;PMS_P2;Temp;Humidity;BMP_temperature;BMP_pressure;BME280_temperature;BME280_humidity;BME280_pressure;Samples;Min_cycle;Max_cycle;Signal;HPM_P1;HPM_P2
2023/06/24 00:00:11;;;;;;;;;;;24.60;55.00;;;;;;10328666;28;96115;-62
2023/06/24 00:05:13;;;;;;;;;;;24.60;55.00;;;;;;10331417;28;94510;-62
2023/06/24 00:10:15;;;;;;;;;;;24.60;55.00;;;;;;10330112;28;93697;-62
2023/06/24 00:15:18;;;;;;;;;;;24.60;55.00;;;;;;10312726;28;93697;-62
2023/06/24 00:20:20;;;;;;;;;;;24.60;55.00;;;;;;10313334;28;94691;-62
2023/06/24 00:25:22;;;;;;;;;;;24.60;55.00;;;;;;10312606;28;95031;-62
2023/06/24 00:30:23;;;;;;;;;;;24.60;55.00;;;;;;10330309;28;94612;-62
2023/06/24 00:35:25;;;;;;;;;;;24.60;55.10;;;;;;10330858;28;93900;-62
2023/06/24 00:40:28;;;;;;;;;;;24.60;55.00;;;;;;10330644;28;94648;-61
2023/06/24 00:45:30;;;;;;;;;;;24.60;55.10;;;;;;10312242;28;94554;-62
2023/06/24 00:50:32;;;;;;;;;;;24.60;55.00;;;;;;10325608;28;95894;-62
2023/06/24 00:55:34;;;;;;;;;;;24.60;55.00;;;;;;10329038;28;92691;-62
2023/06/24 01:00:36;;;;;;;;;;;24.60;55.00;;;;;;10329146;28;94290;-62
2023/06/24 01:05:38;;;;;;;;;;;24.60;55.00;;;;;;10329945;28;93253;-62
2023/06/24 01:10:40;;;;;;;;;;;24.60;55.00;;;;;;10329538;28;94527;-62
2023/06/24 01:15:41;;;;;;;;;;;24.70;55.10;;;;;;10310545;28;93539;-62
2023/06/24 01:20:54;;;;;;;;;;;24.60;55.10;;;;;;10328766;28;94468;-62
2023/06/24 01:25:56;;;;;;;;;;;24.60;55.00;;;;;;10329835;28;95640;-62
2023/06/24 01:31:06;;;;;;;;;;;24.60;55.10;;;;;;10329006;28;94673;-63
2023/06/24 01:36:11;;;;;;;;;;;24.60;55.10;;;;;;10327564;28;94209;-62
2023/06/24 01:41:15;;;;;;;;;;;24.60;55.10;;;;;;10306913;28;95833;-62
2023/06/24 01:46:20;;;;;;;;;;;24.60;55.10;;;;;;10327621;28;94493;-62
2023/06/24 01:51:23;;;;;;;;;;;24.60;55.10;;;;;;10309287;28;93540;-62
2023/06/24 01:56:26;;;;;;;;;;;24.60;55.10;;;;;;10328744;28;93530;-62
2023/06/24 02:01:28;;;;;;;;;;;24.60;55.10;;;;;;10292625;28;94131;-62
2023/06/24 02:06:31;;;;;;;;;;;24.60;55.10;;;;;;10328368;28;94551;-63
2023/06/24 02:11:33;;;;;;;;;;;24.50;55.10;;;;;;10327419;28;92443;-62
2023/06/24 02:16:35;;;;;;;;;;;24.50;55.10;;;;;;10327243;28;92767;-62
2023/06/24 02:21:39;;;;;;;;;;;24.50;55.10;;;;;;10326601;28;93971;-63
2023/06/24 02:26:41;;;;;;;;;;;24.50;55.20;;;;;;10327039;28;94451;-62
2023/06/24 02:31:43;;;;;;;;;;;24.50;55.20;;;;;;10323830;28;97175;-61
2023/06/24 02:36:44;;;;;;;;;;;24.50;55.30;;;;;;10308354;28;94407;-61
2023/06/24 02:41:47;;;;;;;;;;;24.50;55.30;;;;;;10326940;28;94440;-62
2023/06/24 02:46:49;;;;;;;;;;;24.50;55.20;;;;;;10308035;28;94523;-62
2023/06/24 02:51:51;;;;;;;;;;;24.50;55.20;;;;;;10325697;28;93788;-61
2023/06/24 02:56:55;;;;;;;;;;;24.50;55.20;;;;;;10326656;28;94538;-61
2023/06/24 03:01:57;;;;;;;;;;;24.50;55.20;;;;;;10309190;28;96135;-61
2023/06/24 03:06:59;;;;;;;;;;;24.50;55.20;;;;;;10325671;28;93608;-61
2023/06/24 03:12:01;;;;;;;;;;;24.50;55.20;;;;;;10326953;28;93908;-61
2023/06/24 03:17:03;;;;;;;;;;;24.50;55.10;;;;;;10330301;28;93576;-60
2023/06/24 03:22:05;;;;;;;;;;;24.50;55.10;;;;;;10330705;28;96992;-61
2023/06/24 03:27:07;;;;;;;;;;;24.50;55.20;;;;;;10331889;28;93567;-60
2023/06/24 03:32:09;;;;;;;;;;;24.50;55.10;;;;;;10332109;28;94582;-60
2023/06/24 03:37:11;;;;;;;;;;;24.50;55.20;;;;;;10332395;28;93544;-60
2023/06/24 03:42:13;;;;;;;;;;;24.50;55.10;;;;;;10332006;28;94584;-60
2023/06/24 03:47:15;;;;;;;;;;;24.50;55.10;;;;;;10331738;28;94477;-60
2023/06/24 03:52:17;;;;;;;;;;;24.50;55.20;;;;;;10332025;28;95534;-60
2023/06/24 03:57:19;;;;;;;;;;;24.50;55.10;;;;;;10314370;28;92930;-61
2023/06/24 04:02:21;;;;;;;;;;;24.50;55.10;;;;;;10331157;28;93730;-61
2023/06/24 04:07:29;;;;;;;;;;;24.50;55.10;;;;;;10331131;28;93489;-61
2023/06/24 04:12:31;;;;;;;;;;;24.40;55.10;;;;;;10329037;28;96065;-61
2023/06/24 04:17:33;;;;;;;;;;;24.40;55.00;;;;;;10331693;28;93718;-60
2023/06/24 04:22:36;;;;;;;;;;;24.40;55.10;;;;;;10331723;28;93070;-60
2023/06/24 04:27:38;;;;;;;;;;;24.40;55.10;;;;;;10313359;28;94100;-59
2023/06/24 04:32:40;;;;;;;;;;;24.40;55.20;;;;;;10330883;28;94561;-61
2023/06/24 04:37:43;;;;;;;;;;;24.40;55.30;;;;;;10330536;28;94815;-61
2023/06/24 04:42:45;;;;;;;;;;;24.40;55.30;;;;;;10329217;28;93646;-61
2023/06/24 04:47:47;;;;;;;;;;;24.40;55.40;;;;;;10770844;22;95117;-62
2023/06/24 04:52:56;;;;;;;;;;;24.40;55.40;;;;;;10326971;28;93503;-68
2023/06/24 04:57:58;;;;;;;;;;;24.40;55.50;;;;;;10290902;28;94419;-62
2023/06/24 05:03:00;;;;;;;;;;;24.40;55.60;;;;;;10292889;28;96085;-62
2023/06/24 05:08:02;;;;;;;;;;;24.40;55.60;;;;;;10279954;28;93481;-62
2023/06/24 05:13:03;;;;;;;;;;;24.40;55.60;;;;;;10283579;28;94530;-63
2023/06/24 05:18:05;;;;;;;;;;;24.40;55.70;;;;;;10281032;28;94648;-63
2023/06/24 05:23:07;;;;;;;;;;;24.40;55.80;;;;;;10283763;28;94698;-62
2023/06/24 05:28:08;;;;;;;;;;;24.40;55.80;;;;;;10303373;28;95043;-62
2023/06/24 05:33:10;;;;;;;;;;;24.50;55.80;;;;;;10305624;28;93657;-62
2023/06/24 05:38:12;;;;;;;;;;;24.50;55.80;;;;;;10325044;28;92716;-67
2023/06/24 05:43:13;;;;;;;;;;;24.50;55.90;;;;;;10327829;28;94526;-62
2023/06/24 05:48:15;;;;;;;;;;;24.50;55.70;;;;;;10324248;28;94305;-67
2023/06/24 05:53:17;;;;;;;;;;;24.50;54.30;;;;;;10321379;28;97317;-67
2023/06/24 05:58:19;;;;;;;;;;;24.40;53.80;;;;;;10324079;28;92592;-67
2023/06/24 06:03:21;;;;;;;;;;;24.40;53.70;;;;;;10325306;28;93551;-67
2023/06/24 06:08:22;;;;;;;;;;;24.40;53.50;;;;;;10310352;28;93399;-67
2023/06/24 06:13:24;;;;;;;;;;;24.40;53.30;;;;;;10327853;28;94671;-66
2023/06/24 06:18:26;;;;;;;;;;;24.20;53.90;;;;;;10310631;28;94446;-65
2023/06/24 06:23:27;;;;;;;;;;;24.10;55.60;;;;;;10327270;28;94584;-68
2023/06/24 06:28:29;;;;;;;;;;;24.10;54.90;;;;;;10328278;28;94101;-67
2023/06/24 06:33:31;;;;;;;;;;;24.10;56.40;;;;;;10309319;28;94508;-65
2023/06/24 06:38:33;;;;;;;;;;;24.10;55.30;;;;;;10326997;28;94493;-62
2023/06/24 06:43:35;;;;;;;;;;;24.30;56.40;;;;;;10324639;28;97109;-63
2023/06/24 06:48:36;;;;;;;;;;;24.40;55.70;;;;;;10326875;28;94931;-65
2023/06/24 06:53:38;;;;;;;;;;;24.50;55.40;;;;;;10332744;28;94838;-64
2023/06/24 06:58:40;;;;;;;;;;;24.60;55.30;;;;;;10333046;28;94480;-63
2023/06/24 07:03:41;;;;;;;;;;;24.80;55.10;;;;;;10333842;28;94897;-66
2023/06/24 07:08:43;;;;;;;;;;;24.90;53.90;;;;;;10315637;28;94403;-66
2023/06/24 07:13:45;;;;;;;;;;;25.00;54.20;;;;;;10332817;28;94638;-63
2023/06/24 07:18:47;;;;;;;;;;;25.00;54.30;;;;;;10333279;28;92716;-63
2023/06/24 07:23:49;;;;;;;;;;;25.10;53.70;;;;;;10331479;28;93527;-63
2023/06/24 07:28:50;;;;;;;;;;;25.10;53.30;;;;;;10297193;28;92763;-66
2023/06/24 07:34:08;;;;;;;;;;;25.00;52.80;;;;;;10288710;28;96959;-67
2023/06/24 07:39:10;;;;;;;;;;;25.00;53.30;;;;;;10271986;28;94549;-66
2023/06/24 07:44:12;;;;;;;;;;;25.00;53.50;;;;;;10292286;28;93498;-65
2023/06/24 07:49:13;;;;;;;;;;;25.00;53.40;;;;;;10290323;28;92879;-66
2023/06/24 07:54:15;;;;;;;;;;;24.90;53.70;;;;;;10290143;28;93757;-65
2023/06/24 07:59:17;;;;;;;;;;;24.90;52.50;;;;;;10272929;28;94624;-64
2023/06/24 08:04:19;;;;;;;;;;;24.80;53.20;;;;;;10272037;28;94473;-65
2023/06/24 08:09:21;;;;;;;;;;;24.80;53.20;;;;;;10290798;28;92769;-65
2023/06/24 08:14:22;;;;;;;;;;;24.80;53.10;;;;;;10289855;28;94584;-65
2023/06/24 08:19:24;;;;;;;;;;;24.60;53.20;;;;;;10289377;28;93505;-65
2023/06/24 08:24:26;;;;;;;;;;;24.60;53.60;;;;;;10286069;28;96892;-65
2023/06/24 08:29:27;;;;;;;;;;;24.70;53.70;;;;;;10290097;28;94535;-65
2023/06/24 08:34:29;;;;;;;;;;;24.70;53.80;;;;;;10289645;28;94506;-65
2023/06/24 08:39:31;;;;;;;;;;;24.80;53.70;;;;;;10270964;28;93612;-65
2023/06/24 08:44:32;;;;;;;;;;;24.80;53.50;;;;;;10289242;28;93882;-65
2023/06/24 08:49:38;;;;;;;;;;;24.90;53.50;;;;;;10288083;28;94817;-65
2023/06/24 08:54:40;;;;;;;;;;;24.90;53.40;;;;;;10270979;28;93804;-65
2023/06/24 08:59:42;;;;;;;;;;;24.90;53.30;;;;;;10290405;28;94168;-65
2023/06/24 09:04:44;;;;;;;;;;;24.90;53.50;;;;;;10288873;28;94657;-64
2023/06/24 09:09:46;;;;;;;;;;;24.90;53.70;;;;;;10271057;28;94518;-65
2023/06/24 09:14:49;;;;;;;;;;;24.80;53.80;;;;;;10284870;28;96993;-64
2023/06/24 09:19:51;;;;;;;;;;;24.80;53.90;;;;;;10287479;28;93616;-65
2023/06/24 09:24:53;;;;;;;;;;;24.80;53.80;;;;;;10287434;28;93542;-65
2023/06/24 09:29:57;;;;;;;;;;;24.80;54.00;;;;;;10287360;28;112638;-65
2023/06/24 09:35:02;;;;;;;;;;;24.80;54.00;;;;;;10288355;28;94055;-64
2023/06/24 09:40:06;;;;;;;;;;;24.80;54.20;;;;;;10288274;28;92892;-64
2023/06/24 09:45:08;;;;;;;;;;;24.80;54.70;;;;;;10288498;28;94522;-65
2023/06/24 09:50:10;;;;;;;;;;;24.80;55.30;;;;;;10288829;28;94063;-64
2023/06/24 09:55:15;;;;;;;;;;;24.90;55.60;;;;;;10287658;28;93606;-65
2023/06/24 10:00:21;;;;;;;;;;;24.90;55.40;;;;;;10269765;28;93714;-64
2023/06/24 10:05:22;;;;;;;;;;;25.00;55.60;;;;;;10285497;28;96034;-64
2023/06/24 10:10:24;;;;;;;;;;;25.10;54.70;;;;;;10288652;28;94666;-64
2023/06/24 10:15:26;;;;;;;;;;;25.20;54.20;;;;;;10289055;28;93452;-64
2023/06/24 10:20:28;;;;;;;;;;;25.30;53.90;;;;;;10288553;28;93672;-64
2023/06/24 10:25:35;;;;;;;;;;;25.30;53.00;;;;;;10292996;28;94666;-64
2023/06/24 10:30:37;;;;;;;;;;;25.40;52.80;;;;;;10295414;28;94608;-64
2023/06/24 10:35:41;;;;;;;;;;;25.30;52.70;;;;;;10293494;28;94399;-64
2023/06/24 10:40:43;;;;;;;;;;;25.40;52.80;;;;;;10292406;28;92780;-64
2023/06/24 10:45:48;;;;;;;;;;;25.40;52.80;;;;;;10292128;28;93455;-64
2023/06/24 10:50:50;;;;;;;;;;;25.40;52.90;;;;;;10292911;28;94416;-64
2023/06/24 10:55:56;;;;;;;;;;;25.50;53.10;;;;;;10289908;28;95874;-64
2023/06/24 11:01:08;;;;;;;;;;;25.50;53.10;;;;;;10291610;28;93736;-65
2023/06/24 11:06:10;;;;;;;;;;;25.40;53.10;;;;;;10291826;28;93471;-64
2023/06/24 11:11:18;;;;;;;;;;;25.50;53.20;;;;;;10291846;28;93651;-64
2023/06/24 11:16:22;;;;;;;;;;;25.50;53.30;;;;;;10291614;28;94527;-64
2023/06/24 11:21:31;;;;;;;;;;;25.50;53.50;;;;;;10291405;28;94592;-64
2023/06/24 11:26:33;;;;;;;;;;;25.40;53.70;;;;;;10273398;28;93691;-64
2023/06/24 11:31:35;;;;;;;;;;;25.40;54.00;;;;;;10291878;28;93918;-64
2023/06/24 11:36:37;;;;;;;;;;;25.40;54.30;;;;;;10290863;28;94166;-64
2023/06/24 11:41:39;;;;;;;;;;;25.40;54.50;;;;;;10291284;28;94464;-64
2023/06/24 11:46:41;;;;;;;;;;;25.40;54.70;;;;;;10288140;28;95844;-64
2023/06/24 11:51:50;;;;;;;;;;;25.40;55.00;;;;;;10272678;28;94479;-63
2023/06/24 11:56:52;;;;;;;;;;;25.40;55.10;;;;;;10290591;28;93489;-65
2023/06/24 12:01:57;;;;;;;;;;;25.40;55.30;;;;;;10290621;28;93898;-63
2023/06/24 12:06:59;;;;;;;;;;;25.40;55.50;;;;;;10289495;28;94447;-63
2023/06/24 12:12:01;;;;;;;;;;;25.40;55.70;;;;;;10291057;28;94504;-64
2023/06/24 12:17:03;;;;;;;;;;;25.40;55.80;;;;;;10289224;28;94519;-64
2023/06/24 12:22:04;;;;;;;;;;;25.40;55.90;;;;;;10289689;28;92763;-64
2023/06/24 12:27:06;;;;;;;;;;;25.40;56.10;;;;;;10289138;28;94483;-64
2023/06/24 12:32:10;;;;;;;;;;;25.40;56.10;;;;;;10289052;28;94472;-64
2023/06/24 12:37:12;;;;;;;;;;;25.40;56.20;;;;;;10286885;28;96010;-64
2023/06/24 12:42:13;;;;;;;;;;;25.40;56.20;;;;;;10289744;28;94187;-64
2023/06/24 12:47:18;;;;;;;;;;;25.50;56.40;;;;;;10289899;28;93538;-65
2023/06/24 12:52:20;;;;;;;;;;;25.40;56.50;;;;;;10271032;28;94541;-64
2023/06/24 12:57:21;;;;;;;;;;;25.40;56.50;;;;;;10288977;28;94403;-66
2023/06/24 13:02:23;;;;;;;;;;;25.50;57.30;;;;;;10270575;28;94012;-65
2023/06/24 13:07:25;;;;;;;;;;;25.60;58.20;;;;;;10287540;28;92744;-67
2023/06/24 13:12:27;;;;;;;;;;;25.70;57.30;;;;;;10270735;28;93775;-68
2023/06/24 13:17:29;;;;;;;;;;;25.70;56.80;;;;;;10271283;28;94569;-66
2023/06/24 13:22:31;;;;;;;;;;;25.80;56.70;;;;;;10288998;28;94611;-68
2023/06/24 13:27:33;;;;;;;;;;;25.70;56.80;;;;;;10284572;28;95953;-66
2023/06/24 13:32:35;;;;;;;;;;;25.70;57.00;;;;;;10287471;28;93732;-66
2023/06/24 13:37:38;;;;;;;;;;;25.70;57.00;;;;;;10288992;28;94571;-68
2023/06/24 13:42:40;;;;;;;;;;;25.80;57.70;;;;;;10288017;28;93706;-65
2023/06/24 13:47:41;;;;;;;;;;;25.80;58.00;;;;;;10269331;28;92789;-65
2023/06/24 13:52:43;;;;;;;;;;;25.90;57.80;;;;;;10287159;28;93695;-68
2023/06/24 13:57:45;;;;;;;;;;;26.00;58.20;;;;;;10286694;28;94640;-62
2023/06/24 14:02:47;;;;;;;;;;;26.10;58.40;;;;;;10270603;28;93227;-64
2023/06/24 14:07:49;;;;;;;;;;;26.10;57.70;;;;;;10286191;28;93961;-71
2023/06/24 14:12:51;;;;;;;;;;;26.10;58.30;;;;;;10286239;28;93757;-63
2023/06/24 14:17:52;;;;;;;;;;;26.10;58.60;;;;;;10283794;28;95842;-65
2023/06/24 14:22:54;;;;;;;;;;;26.10;59.50;;;;;;10285859;28;94378;-66
2023/06/24 14:27:56;;;;;;;;;;;26.10;58.50;;;;;;10287208;28;94838;-65
2023/06/24 14:32:57;;;;;;;;;;;26.10;58.30;;;;;;10285669;28;94557;-65
2023/06/24 14:37:59;;;;;;;;;;;26.10;59.00;;;;;;10286124;28;94426;-64
2023/06/24 14:43:01;;;;;;;;;;;26.20;59.70;;;;;;10285627;28;92807;-64
2023/06/24 14:48:02;;;;;;;;;;;26.20;59.80;;;;;;10285957;28;94952;-68
2023/06/24 14:53:04;;;;;;;;;;;26.20;59.90;;;;;;10286285;28;92973;-66
2023/06/24 14:58:06;;;;;;;;;;;26.20;60.00;;;;;;10285990;28;94980;-64
2023/06/24 15:03:08;;;;;;;;;;;26.30;59.90;;;;;;10284831;28;94504;-63
2023/06/24 15:08:09;;;;;;;;;;;26.20;58.90;;;;;;10283165;28;95865;-65
2023/06/24 15:13:11;;;;;;;;;;;26.20;59.40;;;;;;10272520;28;94498;-64
2023/06/24 15:18:14;;;;;;;;;;;26.30;59.60;;;;;;10292201;28;92902;-67
2023/06/24 15:23:16;;;;;;;;;;;26.30;59.00;;;;;;10292477;28;93460;-65
2023/06/24 15:28:18;;;;;;;;;;;26.30;58.80;;;;;;10290814;28;93351;-67
2023/06/24 15:33:19;;;;;;;;;;;26.20;58.50;;;;;;10291944;28;93957;-67
2023/06/24 15:38:21;;;;;;;;;;;26.20;58.40;;;;;;10290661;28;94523;-67
2023/06/24 15:43:23;;;;;;;;;;;26.10;58.30;;;;;;10291695;28;93741;-66
2023/06/24 15:48:24;;;;;;;;;;;26.10;58.50;;;;;;10290471;28;94645;-67
2023/06/24 15:53:26;;;;;;;;;;;26.00;59.30;;;;;;10290564;28;94452;-69
2023/06/24 15:58:28;;;;;;;;;;;25.90;58.10;;;;;;10287792;28;96736;-67
2023/06/24 16:03:29;;;;;;;;;;;25.90;57.10;;;;;;10289382;28;93454;-67
2023/06/24 16:08:31;;;;;;;;;;;25.80;55.80;;;;;;10290614;28;93591;-67
2023/06/24 16:13:33;;;;;;;;;;;25.80;55.70;;;;;;10272618;28;94627;-67
2023/06/24 16:18:35;;;;;;;;;;;25.80;54.90;;;;;;10272480;28;94906;-67
2023/06/24 16:23:36;;;;;;;;;;;25.70;54.90;;;;;;10289561;28;93921;-67
2023/06/24 16:28:38;;;;;;;;;;;25.70;54.60;;;;;;10289983;28;93898;-69
2023/06/24 16:33:40;;;;;;;;;;;25.60;54.00;;;;;;10290745;28;92809;-68
2023/06/24 16:38:41;;;;;;;;;;;25.70;53.70;;;;;;10271984;28;94468;-68
2023/06/24 16:43:47;;;;;;;;;;;25.70;53.10;;;;;;10290172;28;94997;-68
2023/06/24 16:48:48;;;;;;;;;;;25.60;51.90;;;;;;10268912;28;96403;-67
2023/06/24 16:53:50;;;;;;;;;;;25.70;51.30;;;;;;10290100;28;94705;-70
2023/06/24 16:58:52;;;;;;;;;;;25.80;52.40;;;;;;10289184;28;93462;-66
2023/06/24 17:03:54;;;;;;;;;;;25.90;54.70;;;;;;10271509;28;93503;-66
2023/06/24 17:08:56;;;;;;;;;;;26.10;52.80;;;;;;10288174;28;94529;-64
2023/06/24 17:13:58;;;;;;;;;;;26.20;52.60;;;;;;10288220;28;94508;-67
2023/06/24 17:19:00;;;;;;;;;;;26.30;52.00;;;;;;10287374;28;93707;-68
2023/06/24 17:24:01;;;;;;;;;;;26.30;52.70;;;;;;10288296;28;92823;-66
2023/06/24 17:29:03;;;;;;;;;;;26.40;51.90;;;;;;10287739;28;93726;-67
2023/06/24 17:34:05;;;;;;;;;;;26.50;51.70;;;;;;10286527;28;92938;-66
2023/06/24 17:39:07;;;;;;;;;;;26.40;51.40;;;;;;10284260;28;96406;-66
2023/06/24 17:44:08;;;;;;;;;;;26.40;51.70;;;;;;10287271;28;94754;-67
2023/06/24 17:49:10;;;;;;;;;;;26.40;52.10;;;;;;10269653;28;93509;-66
2023/06/24 17:54:12;;;;;;;;;;;26.40;52.40;;;;;;10286493;28;92951;-67
2023/06/24 17:59:13;;;;;;;;;;;26.40;52.60;;;;;;10286825;28;94525;-66
2023/06/24 18:04:15;;;;;;;;;;;26.40;52.60;;;;;;10288015;28;94519;-65
2023/06/24 18:09:19;;;;;;;;;;;26.30;52.70;;;;;;10268983;28;94287;-66
2023/06/24 18:14:21;;;;;;;;;;;26.40;52.70;;;;;;10253274;28;92717;-66
2023/06/24 18:19:23;;;;;;;;;;;26.40;53.00;;;;;;10285683;28;93705;-65
2023/06/24 18:24:24;;;;;;;;;;;26.40;53.00;;;;;;10286114;28;92731;-66
2023/06/24 18:29:26;;;;;;;;;;;26.40;53.30;;;;;;10283336;28;95950;-67
2023/06/24 18:34:28;;;;;;;;;;;26.40;53.50;;;;;;10286165;28;93092;-67
2023/06/24 18:39:29;;;;;;;;;;;26.40;54.00;;;;;;10287307;28;94581;-67
2023/06/24 18:44:31;;;;;;;;;;;26.40;53.30;;;;;;10287103;28;94513;-67
2023/06/24 18:49:33;;;;;;;;;;;26.30;53.40;;;;;;10274205;28;94990;-67
2023/06/24 18:54:34;;;;;;;;;;;26.30;53.40;;;;;;10293406;28;93034;-67
2023/06/24 18:59:36;;;;;;;;;;;26.20;53.40;;;;;;10292537;28;94564;-67
2023/06/24 19:04:38;;;;;;;;;;;26.10;53.40;;;;;;10292696;28;93162;-67
2023/06/24 19:09:39;;;;;;;;;;;26.10;53.80;;;;;;10292215;28;94489;-62
2023/06/24 19:14:43;;;;;;;;;;;26.10;54.40;;;;;;10291051;28;94256;-63
2023/06/24 19:19:44;;;;;;;;;;;26.10;55.00;;;;;;10289748;28;96740;-62
2023/06/24 19:24:46;;;;;;;;;;;26.10;55.20;;;;;;10292141;28;95030;-62
2023/06/24 19:29:49;;;;;;;;;;;26.10;55.50;;;;;;10290886;28;93567;-62
2023/06/24 19:34:51;;;;;;;;;;;26.10;55.50;;;;;;10291205;28;93391;-62
2023/06/24 19:39:53;;;;;;;;;;;26.00;55.50;;;;;;10290944;28;94518;-62
2023/06/24 19:44:55;;;;;;;;;;;26.00;55.50;;;;;;10291584;28;94552;-62
2023/06/24 19:49:58;;;;;;;;;;;26.00;55.70;;;;;;10273054;28;94547;-62
2023/06/24 19:55:00;;;;;;;;;;;26.00;55.70;;;;;;10290987;28;92925;-62
2023/06/24 20:00:03;;;;;;;;;;;25.90;55.70;;;;;;10290652;28;93802;-62
2023/06/24 20:05:04;;;;;;;;;;;25.90;55.90;;;;;;10291423;28;93632;-63
2023/06/24 20:10:07;;;;;;;;;;;25.90;55.90;;;;;;10287174;28;96158;-62
2023/06/24 20:15:08;;;;;;;;;;;25.90;56.20;;;;;;10289874;28;94476;-63
2023/06/24 20:20:10;;;;;;;;;;;25.90;56.20;;;;;;10290173;28;94510;-62
2023/06/24 20:25:12;;;;;;;;;;;25.90;56.30;;;;;;10289639;28;94801;-63
2023/06/24 20:30:14;;;;;;;;;;;25.90;56.40;;;;;;10288747;28;92522;-63
2023/06/24 20:35:16;;;;;;;;;;;25.90;56.40;;;;;;10288566;28;93472;-62
2023/06/24 20:40:18;;;;;;;;;;;25.90;56.50;;;;;;10288641;28;94954;-63
2023/06/24 20:45:19;;;;;;;;;;;25.90;56.50;;;;;;10289321;28;92968;-62
2023/06/24 20:50:21;;;;;;;;;;;25.90;56.70;;;;;;10287730;28;92617;-64
2023/06/24 20:55:23;;;;;;;;;;;25.90;56.80;;;;;;10288491;28;94454;-64
2023/06/24 21:00:25;;;;;;;;;;;25.90;56.90;;;;;;10285911;28;95933;-63
2023/06/24 21:05:27;;;;;;;;;;;25.90;56.90;;;;;;10271894;28;93956;-64
2023/06/24 21:10:28;;;;;;;;;;;25.80;56.70;;;;;;10272207;28;92728;-64
2023/06/24 21:15:30;;;;;;;;;;;25.90;56.80;;;;;;10287493;28;93667;-64
2023/06/24 21:20:32;;;;;;;;;;;25.90;56.80;;;;;;10287311;28;94137;-64
2023/06/24 21:25:34;;;;;;;;;;;25.90;56.90;;;;;;10286962;28;92884;-64
2023/06/24 21:30:35;;;;;;;;;;;25.80;56.80;;;;;;10287870;28;94692;-64
2023/06/24 21:35:37;;;;;;;;;;;25.80;56.80;;;;;;10287353;28;92722;-64
2023/06/24 21:40:40;;;;;;;;;;;25.80;56.90;;;;;;10286792;28;93449;-67
2023/06/24 21:45:42;;;;;;;;;;;25.80;56.90;;;;;;10286610;28;94619;-64
2023/06/24 21:50:43;;;;;;;;;;;25.80;57.00;;;;;;10284148;28;96896;-64
2023/06/24 21:55:45;;;;;;;;;;;25.80;57.00;;;;;;10286498;28;94126;-64
2023/06/24 22:00:47;;;;;;;;;;;25.80;56.90;;;;;;10269439;28;95158;-64
2023/06/24 22:05:49;;;;;;;;;;;25.80;57.00;;;;;;10269117;28;93423;-64
2023/06/24 22:10:54;;;;;;;;;;;25.80;57.00;;;;;;10286582;28;93442;-64
2023/06/24 22:15:55;;;;;;;;;;;25.80;57.10;;;;;;10287309;28;93655;-66
2023/06/24 22:20:57;;;;;;;;;;;25.80;57.10;;;;;;10286286;28;94896;-66
2023/06/24 22:25:59;;;;;;;;;;;25.80;57.10;;;;;;10286750;28;93938;-67
2023/06/24 22:31:01;;;;;;;;;;;25.80;57.10;;;;;;10285482;28;93457;-67
2023/06/24 22:36:02;;;;;;;;;;;25.80;57.10;;;;;;10285204;28;93550;-64
2023/06/24 22:41:04;;;;;;;;;;;25.80;57.00;;;;;;10283706;28;95930;-64
2023/06/24 22:46:06;;;;;;;;;;;25.70;57.00;;;;;;10286024;28;94704;-64
2023/06/24 22:51:08;;;;;;;;;;;25.80;57.10;;;;;;10266930;28;93611;-63
2023/06/24 22:56:09;;;;;;;;;;;25.80;57.10;;;;;;10285823;28;93705;-62
2023/06/24 23:01:11;;;;;;;;;;;25.80;57.10;;;;;;10268045;28;93547;-64
2023/06/24 23:06:13;;;;;;;;;;;25.80;57.00;;;;;;10285267;28;93412;-63
2023/06/24 23:11:15;;;;;;;;;;;25.80;57.10;;;;;;10286912;28;94965;-63
2023/06/24 23:16:17;;;;;;;;;;;25.80;57.00;;;;;;10268851;28;93510;-63
2023/06/24 23:21:19;;;;;;;;;;;25.80;57.00;;;;;;10284926;28;93617;-66
2023/06/24 23:26:21;;;;;;;;;;;25.70;56.90;;;;;;10284695;28;92736;-67
2023/06/24 23:31:23;;;;;;;;;;;25.70;56.90;;;;;;10283256;28;96048;-67
2023/06/24 23:36:26;;;;;;;;;;;25.70;56.90;;;;;;10291202;28;94362;-66
2023/06/24 23:41:28;;;;;;;;;;;25.70;57.00;;;;;;10290904;28;93860;-67
2023/06/24 23:46:30;;;;;;;;;;;25.70;56.90;;;;;;10291296;28;93758;-67
2023/06/24 23:51:32;;;;;;;;;;;25.70;56.90;;;;;;10290434;28;94532;-67
2023/06/24 23:56:34;;;;;;;;;;;25.70;57.00;;;;;;10290431;28;94381;-67
